createdAt,value
2023-05-24T00:00:31.793Z,17.35
2023-05-24T00:03:00.088Z,17.32
2023-05-24T00:05:31.231Z,17.29
2023-05-24T00:08:00.241Z,17.24
2023-05-24T00:10:28.166Z,17.18
2023-05-24T00:12:57.478Z,17.14
2023-05-24T00:15:25.518Z,17.10
2023-05-24T00:17:53.503Z,17.05
2023-05-24T00:20:21.686Z,16.99
2023-05-24T00:22:49.682Z,16.97
2023-05-24T00:25:17.680Z,16.97
2023-05-24T00:27:45.595Z,16.93
2023-05-24T00:30:15.385Z,16.89
2023-05-24T00:32:43.401Z,16.83
2023-05-24T00:35:11.340Z,16.77
2023-05-24T00:37:41.905Z,16.70
2023-05-24T00:40:11.103Z,16.65
2023-05-24T00:42:39.191Z,16.59
2023-05-24T00:45:08.340Z,16.55
2023-05-24T00:47:38.333Z,16.57
2023-05-24T00:50:07.550Z,16.58
2023-05-24T00:52:36.031Z,16.58
2023-05-24T00:55:04.110Z,16.63
2023-05-24T00:57:32.182Z,16.64
2023-05-24T01:00:00.165Z,16.62
2023-05-24T01:02:28.585Z,16.61
2023-05-24T01:04:58.054Z,16.60
2023-05-24T01:07:28.076Z,16.59
2023-05-24T01:10:04.673Z,16.55
2023-05-24T01:12:47.670Z,16.50
2023-05-24T01:15:19.409Z,16.45
2023-05-24T01:17:52.800Z,16.40
2023-05-24T01:20:22.611Z,16.38
2023-05-24T01:23:19.260Z,16.40
2023-05-24T01:26:02.039Z,16.32
2023-05-24T01:28:31.358Z,16.28
2023-05-24T01:30:59.296Z,16.26
2023-05-24T01:33:27.266Z,16.27
2023-05-24T01:35:58.034Z,16.23
2023-05-24T01:38:26.061Z,16.18
2023-05-24T01:40:56.884Z,16.16
2023-05-24T01:43:28.439Z,16.10
2023-05-24T01:46:02.129Z,16.09
2023-05-24T01:48:35.373Z,16.03
2023-05-24T01:51:06.674Z,15.93
2023-05-24T01:53:35.328Z,15.88
2023-05-24T01:56:04.208Z,15.83
2023-05-24T01:58:32.741Z,15.82
2023-05-24T02:01:02.087Z,15.80
2023-05-24T02:03:30.130Z,15.80
2023-05-24T02:05:58.088Z,15.78
2023-05-24T02:08:26.094Z,15.77
2023-05-24T02:10:54.049Z,15.78
2023-05-24T02:13:21.996Z,15.76
2023-05-24T02:15:51.853Z,15.76
2023-05-24T02:18:22.642Z,15.73
2023-05-24T02:20:50.897Z,15.74
2023-05-24T02:23:18.974Z,15.72
2023-05-24T02:25:46.962Z,15.69
2023-05-24T02:28:14.909Z,15.67
2023-05-24T02:30:44.876Z,15.61
2023-05-24T02:33:13.274Z,15.55
2023-05-24T02:35:42.672Z,15.49
2023-05-24T02:38:10.692Z,15.46
2023-05-24T02:40:38.651Z,15.41
2023-05-24T02:43:06.587Z,15.39
2023-05-24T02:45:34.664Z,15.35
2023-05-24T02:48:02.655Z,15.32
2023-05-24T02:50:30.953Z,15.31
2023-05-24T02:53:00.750Z,15.31
2023-05-24T02:55:29.138Z,15.35
2023-05-24T02:57:57.160Z,15.36
2023-05-24T03:00:26.288Z,15.39
2023-05-24T03:02:56.904Z,15.42
2023-05-24T03:05:24.907Z,15.39
2023-05-24T03:07:52.974Z,15.40
2023-05-24T03:10:22.452Z,15.39
2023-05-24T03:12:50.457Z,15.39
2023-05-24T03:15:18.500Z,15.34
2023-05-24T03:17:47.472Z,15.30
2023-05-24T03:20:16.021Z,15.20
2023-05-24T03:22:44.071Z,15.15
2023-05-24T03:25:11.951Z,15.14
2023-05-24T03:27:41.239Z,15.08
2023-05-24T03:30:10.561Z,15.09
2023-05-24T03:32:46.943Z,15.14
2023-05-24T03:35:15.372Z,15.13
2023-05-24T03:37:43.765Z,15.14
2023-05-24T03:40:12.181Z,15.16
2023-05-24T03:42:53.660Z,15.18
2023-05-24T03:45:38.420Z,15.21
2023-05-24T03:48:08.053Z,15.18
2023-05-24T03:50:36.037Z,15.19
2023-05-24T03:53:04.026Z,15.20
2023-05-24T03:55:31.947Z,15.14
2023-05-24T03:58:01.204Z,15.06
2023-05-24T04:00:29.666Z,15.05
2023-05-24T04:02:57.648Z,15.06
2023-05-24T04:05:27.244Z,15.05
2023-05-24T04:07:55.361Z,15.08
2023-05-24T04:10:23.949Z,15.11
2023-05-24T04:12:51.881Z,15.10
2023-05-24T04:15:21.387Z,15.10
2023-05-24T04:17:54.989Z,15.12
2023-05-24T04:20:25.433Z,15.12
2023-05-24T04:22:53.735Z,15.11
2023-05-24T04:25:21.689Z,15.10
2023-05-24T04:27:50.319Z,15.08
2023-05-24T04:30:18.409Z,15.04
2023-05-24T04:32:48.689Z,15.05
2023-05-24T04:35:16.764Z,15.07
2023-05-24T04:37:44.770Z,15.05
2023-05-24T04:40:13.720Z,15.06
2023-05-24T04:42:41.620Z,15.09
2023-05-24T04:45:10.437Z,15.07
2023-05-24T04:47:38.349Z,15.08
2023-05-24T04:50:08.671Z,15.06
2023-05-24T04:52:37.516Z,15.07
2023-05-24T04:55:05.996Z,15.07
2023-05-24T04:57:33.921Z,15.06
2023-05-24T05:00:02.128Z,15.06
2023-05-24T05:02:30.088Z,15.04
2023-05-24T05:04:58.047Z,15.03
2023-05-24T05:07:29.414Z,15.07
2023-05-24T05:09:57.593Z,15.12
2023-05-24T05:12:25.544Z,15.18
2023-05-24T05:14:53.502Z,15.28
2023-05-24T05:17:21.758Z,15.39
2023-05-24T05:19:49.782Z,15.46
2023-05-24T05:22:17.766Z,15.43
2023-05-24T05:24:47.088Z,15.39
2023-05-24T05:27:15.125Z,15.40
2023-05-24T05:29:43.081Z,15.40
2023-05-24T05:32:11.279Z,15.43
2023-05-24T05:34:39.257Z,15.50
2023-05-24T05:37:07.171Z,15.61
2023-05-24T05:39:35.139Z,15.71
2023-05-24T05:42:04.619Z,15.86
2023-05-24T05:44:32.547Z,16.01
2023-05-24T05:47:00.463Z,16.14
2023-05-24T05:49:28.431Z,16.21
2023-05-24T05:51:56.334Z,16.28
2023-05-24T05:54:24.321Z,16.35
2023-05-24T05:56:52.338Z,16.42
2023-05-24T05:59:21.610Z,16.51
2023-05-24T06:01:49.819Z,16.60
2023-05-24T06:04:17.742Z,16.71
2023-05-24T06:06:49.605Z,16.80
2023-05-24T06:09:17.854Z,16.90
2023-05-24T06:11:45.853Z,16.88
2023-05-24T06:14:18.554Z,16.89
2023-05-24T06:16:48.156Z,16.92
2023-05-24T06:19:16.672Z,17.01
2023-05-24T06:21:48.106Z,17.08
2023-05-24T06:24:20.593Z,17.16
2023-05-24T06:26:48.790Z,17.28
2023-05-24T06:29:16.677Z,17.41
2023-05-24T06:31:44.685Z,17.59
2023-05-24T06:34:17.003Z,17.69
2023-05-24T06:36:47.196Z,17.77
2023-05-24T06:39:15.333Z,17.88
2023-05-24T06:41:43.327Z,17.98
2023-05-24T06:44:11.462Z,18.11
2023-05-24T06:46:40.046Z,18.21
2023-05-24T06:49:08.610Z,18.32
2023-05-24T06:51:38.486Z,18.34
2023-05-24T06:54:06.755Z,18.50
2023-05-24T06:56:34.833Z,18.56
2023-05-24T06:59:02.775Z,18.55
2023-05-24T07:01:30.867Z,18.58
2023-05-24T07:03:59.185Z,18.57
2023-05-24T07:06:27.221Z,18.51
2023-05-24T07:08:56.534Z,18.56
2023-05-24T07:11:24.541Z,18.62
2023-05-24T07:13:52.787Z,18.70
2023-05-24T07:16:20.846Z,18.77
2023-05-24T07:18:48.827Z,18.82
2023-05-24T07:21:16.811Z,18.81
2023-05-24T07:23:44.776Z,18.83
2023-05-24T07:26:14.411Z,18.87
2023-05-24T07:28:42.410Z,18.94
2023-05-24T07:31:10.439Z,19.03
2023-05-24T07:33:38.687Z,19.10
2023-05-24T07:36:08.778Z,19.08
2023-05-24T07:38:37.168Z,19.14
2023-05-24T07:41:08.605Z,19.20
2023-05-24T07:43:38.414Z,19.23
2023-05-24T07:46:06.661Z,19.20
2023-05-24T07:48:34.796Z,19.17
2023-05-24T07:51:05.074Z,19.27
2023-05-24T07:53:34.217Z,19.35
2023-05-24T07:56:02.373Z,19.47
2023-05-24T07:58:30.543Z,19.58
2023-05-24T08:01:00.366Z,19.64
2023-05-24T08:03:28.889Z,19.78
2023-05-24T08:05:57.418Z,19.83
2023-05-24T08:08:25.752Z,19.97
2023-05-24T08:10:53.710Z,20.08
2023-05-24T08:13:21.770Z,20.16
2023-05-24T08:15:49.757Z,20.05
2023-05-24T08:18:19.087Z,19.93
2023-05-24T08:20:47.245Z,19.96
2023-05-24T08:23:15.443Z,20.07
2023-05-24T08:25:44.290Z,20.14
2023-05-24T08:28:12.512Z,20.13
2023-05-24T08:30:40.776Z,20.19
2023-05-24T08:33:08.751Z,20.26
2023-05-24T08:35:38.201Z,20.23
2023-05-24T08:38:06.177Z,20.28
2023-05-24T08:40:34.225Z,20.36
2023-05-24T08:43:02.591Z,20.43
2023-05-24T08:45:31.254Z,20.49
2023-05-24T08:48:00.665Z,20.59
2023-05-24T08:50:28.840Z,20.72
2023-05-24T08:52:58.199Z,20.75
2023-05-24T08:55:26.175Z,20.70
2023-05-24T08:57:54.948Z,20.71
2023-05-24T09:00:23.906Z,20.77
2023-05-24T09:02:52.298Z,20.88
2023-05-24T09:05:22.020Z,21.00
2023-05-24T09:07:51.107Z,21.11
2023-05-24T09:10:22.133Z,21.22
2023-05-24T09:12:54.926Z,21.37
2023-05-24T09:15:23.078Z,21.54
2023-05-24T09:17:54.095Z,21.68
2023-05-24T09:20:24.802Z,21.86
2023-05-24T09:22:54.484Z,22.00
2023-05-24T09:25:24.418Z,22.12
2023-05-24T09:27:52.526Z,22.13
2023-05-24T09:30:21.177Z,22.15
2023-05-24T09:32:57.120Z,22.11
2023-05-24T09:35:26.848Z,22.12
2023-05-24T09:37:59.944Z,22.09
2023-05-24T09:40:30.106Z,22.20
2023-05-24T09:43:09.160Z,22.31
2023-05-24T09:45:43.025Z,22.31
2023-05-24T09:48:12.727Z,22.31
2023-05-24T09:50:41.314Z,22.42
2023-05-24T09:53:09.764Z,22.47
2023-05-24T09:55:39.370Z,22.44
2023-05-24T09:58:09.027Z,22.40
2023-05-24T10:00:40.177Z,22.39
2023-05-24T10:03:11.062Z,22.39
2023-05-24T10:05:39.584Z,22.48
2023-05-24T10:08:10.947Z,22.47
2023-05-24T10:10:42.382Z,22.42
2023-05-24T10:13:11.662Z,22.43
2023-05-24T10:15:39.699Z,22.51
2023-05-24T10:18:10.604Z,22.56
2023-05-24T10:20:41.449Z,22.48
2023-05-24T10:23:11.027Z,22.59
2023-05-24T10:25:46.732Z,22.78
2023-05-24T10:28:14.820Z,22.88
2023-05-24T10:30:52.323Z,22.86
2023-05-24T10:33:21.845Z,22.78
2023-05-24T10:35:50.334Z,22.87
2023-05-24T10:38:18.931Z,23.08
2023-05-24T10:40:49.259Z,23.22
2023-05-24T10:43:20.102Z,23.30
2023-05-24T10:45:51.677Z,23.33
2023-05-24T10:48:38.928Z,23.41
2023-05-24T10:51:33.555Z,23.59
2023-05-24T10:54:15.927Z,23.68
2023-05-24T10:56:48.141Z,23.83
2023-05-24T10:59:30.507Z,23.91
2023-05-24T11:02:00.797Z,24.14
2023-05-24T11:04:37.705Z,24.42
2023-05-24T11:07:09.608Z,24.46
2023-05-24T11:09:46.139Z,24.41
2023-05-24T11:12:20.819Z,24.50
2023-05-24T11:14:52.555Z,24.67
2023-05-24T11:17:23.118Z,24.88
2023-05-24T11:19:52.342Z,25.09
2023-05-24T11:22:21.413Z,25.18
2023-05-24T11:24:49.426Z,25.17
2023-05-24T11:27:18.806Z,25.27
2023-05-24T11:29:48.508Z,25.32
2023-05-24T11:32:17.125Z,25.23
2023-05-24T11:34:47.917Z,25.32
2023-05-24T11:37:18.067Z,25.52
2023-05-24T11:39:52.046Z,25.62
2023-05-24T11:42:25.933Z,25.73
2023-05-24T11:44:54.650Z,25.62
2023-05-24T11:47:25.406Z,25.41
2023-05-24T11:49:53.683Z,25.54
2023-05-24T11:52:23.915Z,25.57
2023-05-24T11:54:55.298Z,25.56
2023-05-24T11:57:30.533Z,25.64
2023-05-24T11:59:59.345Z,25.84
2023-05-24T12:02:27.585Z,25.99
2023-05-24T12:04:55.708Z,26.15
2023-05-24T12:07:24.919Z,26.23
2023-05-24T12:09:53.291Z,26.47
2023-05-24T12:12:30.503Z,26.53
2023-05-24T12:14:58.752Z,26.75
2023-05-24T12:17:26.878Z,26.74
2023-05-24T12:19:55.040Z,27.01
2023-05-24T12:22:28.407Z,27.07
2023-05-24T12:24:56.456Z,27.10
2023-05-24T12:27:28.685Z,27.31
2023-05-24T12:29:56.905Z,27.34
2023-05-24T12:32:25.019Z,27.26
2023-05-24T12:34:53.513Z,26.97
2023-05-24T12:37:21.572Z,26.69
2023-05-24T12:39:51.755Z,26.67
2023-05-24T12:42:23.853Z,26.42
2023-05-24T12:44:54.395Z,26.38
2023-05-24T12:47:22.477Z,25.96
2023-05-24T12:49:50.972Z,25.89
2023-05-24T12:52:18.980Z,25.76
2023-05-24T12:54:46.969Z,25.73
2023-05-24T12:57:15.109Z,25.45
2023-05-24T12:59:43.376Z,25.56
2023-05-24T13:02:13.490Z,25.49
2023-05-24T13:04:41.567Z,25.60
2023-05-24T13:07:09.849Z,25.78
2023-05-24T13:09:37.868Z,25.86
2023-05-24T13:12:08.949Z,25.94
2023-05-24T13:14:37.558Z,26.09
2023-05-24T13:17:05.731Z,26.26
2023-05-24T13:19:35.104Z,26.55
2023-05-24T13:22:03.055Z,26.92
2023-05-24T13:24:31.059Z,27.17
2023-05-24T13:26:59.431Z,27.12
2023-05-24T13:29:39.222Z,26.95
2023-05-24T13:32:07.824Z,26.76
2023-05-24T13:34:37.273Z,26.74
2023-05-24T13:37:05.275Z,26.92
2023-05-24T13:39:33.303Z,26.97
2023-05-24T13:42:01.910Z,27.04
2023-05-24T13:44:30.664Z,27.14
2023-05-24T13:46:58.751Z,26.84
2023-05-24T13:49:27.728Z,26.56
2023-05-24T13:51:58.600Z,26.48
2023-05-24T13:54:27.817Z,26.42
2023-05-24T13:56:57.501Z,26.54
2023-05-24T13:59:25.761Z,26.50
2023-05-24T14:01:53.758Z,26.29
2023-05-24T14:04:21.771Z,26.25
2023-05-24T14:06:49.731Z,26.43
2023-05-24T14:09:21.103Z,26.57
2023-05-24T14:11:49.238Z,26.40
2023-05-24T14:16:51.695Z,26.56
2023-05-24T14:19:19.806Z,26.80
2023-05-24T14:21:47.806Z,26.86
2023-05-24T14:24:15.815Z,26.92
2023-05-24T14:26:47.478Z,26.80
2023-05-24T14:29:15.497Z,26.78
2023-05-24T14:31:43.947Z,26.72
2023-05-24T14:34:12.118Z,26.83
2023-05-24T14:36:40.466Z,27.14
2023-05-24T14:39:08.772Z,27.49
2023-05-24T14:41:36.776Z,27.80
2023-05-24T14:44:06.110Z,27.81
2023-05-24T14:46:34.083Z,27.84
2023-05-24T14:49:02.707Z,27.97
2023-05-24T14:51:30.744Z,28.11
2023-05-24T14:53:58.697Z,28.40
2023-05-24T14:56:26.607Z,28.70
2023-05-24T14:58:55.315Z,29.16
2023-05-24T15:01:24.688Z,29.59
2023-05-24T15:03:52.835Z,29.89
2023-05-24T15:06:20.908Z,30.13
2023-05-24T15:08:48.923Z,30.36
2023-05-24T15:11:18.716Z,30.55
2023-05-24T15:13:46.852Z,30.48
2023-05-24T15:16:15.065Z,30.45
2023-05-24T15:18:44.548Z,30.44
2023-05-24T15:21:12.472Z,30.19
2023-05-24T15:23:40.547Z,30.06
2023-05-24T15:26:08.794Z,29.97
2023-05-24T15:28:36.709Z,29.81
2023-05-24T15:31:04.712Z,29.80
2023-05-24T15:33:33.263Z,29.72
2023-05-24T15:36:02.813Z,29.61
2023-05-24T15:38:31.100Z,29.66
2023-05-24T15:40:59.118Z,29.69
2023-05-24T15:43:27.079Z,29.53
2023-05-24T15:45:55.056Z,29.68
2023-05-24T15:48:22.944Z,29.93
2023-05-24T15:53:25.366Z,30.54
2023-05-24T15:55:55.550Z,30.67
2023-05-24T15:58:23.987Z,30.68
2023-05-24T16:00:53.429Z,30.47
2023-05-24T16:03:21.687Z,30.10
2023-05-24T16:05:50.537Z,29.76
2023-05-24T16:08:18.517Z,29.49
2023-05-24T16:10:49.136Z,29.43
2023-05-24T16:13:17.206Z,29.47
2023-05-24T16:15:51.278Z,29.60
2023-05-24T16:18:21.392Z,29.94
2023-05-24T16:20:49.691Z,30.12
2023-05-24T16:23:17.809Z,30.43
2023-05-24T16:25:47.119Z,30.61
2023-05-24T16:28:15.148Z,30.52
2023-05-24T16:30:43.688Z,30.23
2023-05-24T16:33:11.961Z,30.03
2023-05-24T16:35:40.085Z,29.97
2023-05-24T16:38:08.008Z,29.69
2023-05-24T16:40:35.983Z,29.32
2023-05-24T16:43:05.429Z,28.93
2023-05-24T16:45:35.856Z,28.78
2023-05-24T16:48:03.954Z,28.43
2023-05-24T16:50:32.036Z,28.17
2023-05-24T16:53:00.027Z,27.98
2023-05-24T16:55:27.951Z,27.85
2023-05-24T16:57:56.097Z,27.73
2023-05-24T17:00:25.420Z,27.67
2023-05-24T17:02:54.712Z,27.70
2023-05-24T17:05:22.814Z,27.67
2023-05-24T17:07:50.781Z,27.51
2023-05-24T17:10:19.508Z,27.64
2023-05-24T17:12:48.529Z,27.50
2023-05-24T17:15:16.834Z,27.65
2023-05-24T17:17:46.249Z,27.34
2023-05-24T17:20:14.552Z,27.12
2023-05-24T17:22:42.609Z,27.05
2023-05-24T17:25:10.727Z,26.93
2023-05-24T17:27:38.674Z,26.86
2023-05-24T17:30:08.815Z,26.72
2023-05-24T17:32:36.929Z,26.52
2023-05-24T17:35:06.781Z,26.20
2023-05-24T17:37:34.783Z,25.89
2023-05-24T17:40:02.747Z,25.62
2023-05-24T17:42:30.668Z,25.48
2023-05-24T17:44:58.642Z,25.35
2023-05-24T17:47:26.666Z,24.93
2023-05-24T17:49:54.699Z,24.79
2023-05-24T17:52:23.973Z,24.57
2023-05-24T17:54:51.935Z,24.44
2023-05-24T17:57:19.837Z,24.26
2023-05-24T17:59:47.884Z,24.20
2023-05-24T18:02:16.046Z,24.10
2023-05-24T18:04:44.129Z,24.00
2023-05-24T18:07:12.275Z,23.92
2023-05-24T18:09:41.789Z,23.77
2023-05-24T18:12:09.768Z,23.52
2023-05-24T18:14:39.275Z,23.32
2023-05-24T18:17:09.068Z,23.04
2023-05-24T18:19:37.666Z,22.98
2023-05-24T18:22:05.934Z,22.68
2023-05-24T18:24:33.878Z,22.58
2023-05-24T18:27:04.052Z,22.49
2023-05-24T18:29:31.952Z,22.37
2023-05-24T18:31:59.957Z,22.27
2023-05-24T18:34:27.964Z,22.18
2023-05-24T18:36:55.960Z,22.06
2023-05-24T18:39:23.887Z,21.95
2023-05-24T18:41:52.332Z,21.83
2023-05-24T18:44:21.820Z,21.72
2023-05-24T18:46:50.183Z,21.68
2023-05-24T18:49:18.215Z,21.59
2023-05-24T18:51:46.198Z,21.60
2023-05-24T18:54:14.720Z,21.46
2023-05-24T18:56:43.240Z,21.23
2023-05-24T18:59:12.448Z,21.19
2023-05-24T19:01:42.268Z,21.19
2023-05-24T19:04:10.365Z,21.09
2023-05-24T19:06:38.304Z,21.09
2023-05-24T19:09:06.873Z,21.17
2023-05-24T19:11:34.870Z,21.23
2023-05-24T19:14:02.842Z,21.16
2023-05-24T19:16:30.873Z,21.20
2023-05-24T19:19:00.301Z,21.17
2023-05-24T19:21:28.937Z,21.15
2023-05-24T19:23:56.933Z,21.10
2023-05-24T19:26:24.884Z,21.02
2023-05-24T19:28:54.108Z,20.97
2023-05-24T19:31:24.765Z,20.96
2023-05-24T19:34:00.470Z,21.01
2023-05-24T19:36:32.871Z,21.03
2023-05-24T19:39:01.106Z,21.05
2023-05-24T19:41:29.007Z,21.01
2023-05-24T19:43:58.603Z,20.88
2023-05-24T19:46:26.756Z,20.76
2023-05-24T19:48:54.995Z,20.63
2023-05-24T19:51:23.063Z,20.55
2023-05-24T19:53:52.601Z,20.50
2023-05-24T19:56:20.778Z,20.43
2023-05-24T19:58:50.006Z,20.36
2023-05-24T20:01:18.008Z,20.24
2023-05-24T20:03:48.590Z,20.21
2023-05-24T20:06:17.105Z,20.26
2023-05-24T20:08:45.487Z,20.26
2023-05-24T20:11:14.942Z,20.24
2023-05-24T20:13:43.209Z,20.17
2023-05-24T20:16:11.432Z,20.14
2023-05-24T20:18:39.372Z,20.15
2023-05-24T20:21:07.376Z,20.12
2023-05-24T20:23:35.383Z,20.10
2023-05-24T20:26:03.375Z,20.08
2023-05-24T20:28:32.779Z,20.12
2023-05-24T20:31:01.181Z,20.11
2023-05-24T20:33:29.557Z,20.13
2023-05-24T20:35:57.576Z,20.09
2023-05-24T20:38:25.572Z,20.03
2023-05-24T20:40:53.532Z,19.96
2023-05-24T20:43:21.529Z,19.88
2023-05-24T20:45:51.036Z,19.79
2023-05-24T20:48:19.157Z,19.69
2023-05-24T20:50:47.182Z,19.71
2023-05-24T20:53:15.243Z,19.72
2023-05-24T20:55:43.453Z,19.71
2023-05-24T20:58:11.742Z,19.71
2023-05-24T21:00:40.104Z,19.69
2023-05-24T21:03:09.891Z,19.61
2023-05-24T21:05:40.120Z,19.64
2023-05-24T21:08:08.207Z,19.55
2023-05-24T21:10:38.007Z,19.46
2023-05-24T21:13:06.155Z,19.44
2023-05-24T21:15:34.154Z,19.51
2023-05-24T21:18:02.143Z,19.51
2023-05-24T21:20:31.682Z,19.52
2023-05-24T21:22:59.667Z,19.54
2023-05-24T21:25:27.582Z,19.49
2023-05-24T21:27:56.109Z,19.46
2023-05-24T21:30:24.337Z,19.51
2023-05-24T21:32:52.352Z,19.57
2023-05-24T21:35:20.415Z,19.53
2023-05-24T21:37:49.703Z,19.43
2023-05-24T21:40:17.764Z,19.35
2023-05-24T21:42:45.701Z,19.36
2023-05-24T21:45:13.854Z,19.36
2023-05-24T21:47:41.839Z,19.34
2023-05-24T21:50:10.317Z,19.35
2023-05-24T21:52:39.418Z,19.29
2023-05-24T21:55:10.077Z,19.26
2023-05-24T21:57:38.199Z,19.21
2023-05-24T22:00:06.779Z,19.23
2023-05-24T22:02:35.071Z,19.17
2023-05-24T22:05:05.230Z,19.10
2023-05-24T22:07:33.285Z,19.06
2023-05-24T22:10:01.251Z,19.07
2023-05-24T22:12:30.548Z,19.07
2023-05-24T22:14:58.565Z,19.05
2023-05-24T22:17:29.120Z,19.01
2023-05-24T22:19:57.210Z,19.02
2023-05-24T22:22:25.332Z,18.99
2023-05-24T22:24:53.264Z,18.96
2023-05-24T22:27:21.456Z,18.92
2023-05-24T22:29:50.885Z,18.93
2023-05-24T22:32:18.857Z,18.94
2023-05-24T22:34:47.115Z,18.95
2023-05-24T22:37:16.680Z,18.93
2023-05-24T22:39:45.094Z,18.88
2023-05-24T22:42:13.058Z,18.81
2023-05-24T22:44:40.989Z,18.74
2023-05-24T22:47:13.944Z,18.68
2023-05-24T22:49:43.073Z,18.62
2023-05-24T22:52:11.852Z,18.53
2023-05-24T22:54:39.801Z,18.47
2023-05-24T22:57:07.742Z,18.44
2023-05-24T22:59:35.730Z,18.38
2023-05-24T23:02:03.745Z,18.31
2023-05-24T23:04:33.621Z,18.27
2023-05-24T23:07:01.669Z,18.29
2023-05-24T23:09:34.118Z,18.39
2023-05-24T23:12:02.420Z,18.50
2023-05-24T23:14:31.446Z,18.60
2023-05-24T23:17:02.641Z,18.68
2023-05-24T23:19:31.828Z,18.75
2023-05-24T23:22:03.477Z,18.82
2023-05-24T23:24:31.491Z,18.88
2023-05-24T23:26:59.409Z,18.82
2023-05-24T23:29:27.350Z,18.71
2023-05-24T23:31:55.498Z,18.64
2023-05-24T23:34:23.411Z,18.59
2023-05-24T23:36:51.382Z,18.55
2023-05-24T23:39:20.786Z,18.51
2023-05-24T23:41:48.737Z,18.49
2023-05-24T23:44:16.755Z,18.48
2023-05-24T23:46:44.774Z,18.47
2023-05-24T23:49:12.783Z,18.42
2023-05-24T23:51:40.751Z,18.39
2023-05-24T23:54:08.723Z,18.36
2023-05-24T23:56:39.077Z,18.32
2023-05-24T23:59:07.058Z,18.33
